Time;durP1;ratioP1;P1;durP2;ratioP2;P2;SDS_P1;SDS_P2;PMS_P1;PMS_P2;Temp;Humidity;BMP_temperature;BMP_pressure;BME280_temperature;BME280_humidity;BME280_pressure;Samples;Min_cycle;Max_cycle;Signal;HPM_P1;HPM_P2
2022/04/05 00:01:27;;;;;;;5.13;2.35;;;;;;;2.46;100.00;95525.44;5001612;28;20103;-69
2022/04/05 00:03:53;;;;;;;4.20;2.45;;;;;;;2.47;100.00;95524.41;5004747;28;20048;-70
2022/04/05 00:06:18;;;;;;;5.72;3.75;;;;;;;2.47;100.00;95534.16;5001894;28;20038;-71
2022/04/05 00:08:44;;;;;;;4.35;2.53;;;;;;;2.46;100.00;95530.72;5002665;28;20164;-69
2022/04/05 00:11:10;;;;;;;5.15;2.80;;;;;;;2.42;100.00;95528.75;5000029;28;20454;-70
2022/04/05 00:13:35;;;;;;;4.45;2.83;;;;;;;2.50;100.00;95531.09;4999634;28;20049;-69
2022/04/05 00:16:00;;;;;;;4.00;2.17;;;;;;;2.51;100.00;95530.88;5003275;28;20620;-70
2022/04/05 00:18:26;;;;;;;5.75;3.83;;;;;;;2.57;100.00;95531.00;4998458;28;20567;-69
2022/04/05 00:20:52;;;;;;;5.07;3.10;;;;;;;2.58;100.00;95530.81;5001303;28;20927;-70
2022/04/05 00:23:19;;;;;;;4.10;2.60;;;;;;;2.63;100.00;95514.28;5003554;28;20343;-69
2022/04/05 00:25:44;;;;;;;4.30;2.55;;;;;;;2.65;100.00;95531.53;5003023;28;20052;-69
2022/04/05 00:28:10;;;;;;;5.30;3.28;;;;;;;2.66;100.00;95516.50;4998210;28;20046;-71
2022/04/05 00:30:35;;;;;;;6.10;3.75;;;;;;;2.65;100.00;95531.53;5000977;28;20120;-69
2022/04/05 00:33:01;;;;;;;6.07;3.53;;;;;;;2.61;100.00;95519.78;5000200;28;20034;-71
2022/04/05 00:35:26;;;;;;;4.45;2.35;;;;;;;2.62;100.00;95516.09;4984626;28;20064;-69
2022/04/05 00:37:52;;;;;;;3.30;1.85;;;;;;;2.58;100.00;95506.22;4984981;28;20084;-69
2022/04/05 00:40:17;;;;;;;7.30;3.83;;;;;;;2.64;100.00;95502.66;5000864;28;20112;-70
2022/04/05 00:42:43;;;;;;;10.27;4.22;;;;;;;2.67;100.00;95507.53;5001676;28;20042;-70
2022/04/05 00:45:09;;;;;;;4.90;3.10;;;;;;;2.63;100.00;95524.84;5000433;28;20034;-71
2022/04/05 00:47:36;;;;;;;8.88;4.32;;;;;;;2.66;100.00;95508.56;5003404;28;20121;-70
2022/04/05 00:50:04;;;;;;;7.22;3.78;;;;;;;2.67;100.00;95516.25;4999477;28;20826;-71
2022/04/05 00:52:29;;;;;;;5.93;1.88;;;;;;;2.71;100.00;95508.69;5002031;28;20041;-70
2022/04/05 00:54:58;;;;;;;7.32;4.75;;;;;;;2.67;100.00;95505.69;4985264;28;20504;-71
2022/04/05 00:57:23;;;;;;;7.22;3.63;;;;;;;2.69;100.00;95510.75;4998723;28;20042;-69
2022/04/05 00:59:54;;;;;;;4.05;2.10;;;;;;;2.65;100.00;95502.47;4998638;28;20046;-69
2022/04/05 01:02:21;;;;;;;9.60;5.72;;;;;;;2.74;100.00;95500.34;4999931;28;20041;-69
2022/04/05 01:04:47;;;;;;;8.70;4.60;;;;;;;2.70;100.00;95505.25;5001390;28;20037;-70
2022/04/05 01:07:15;;;;;;;9.25;4.95;;;;;;;2.70;100.00;95510.53;4998830;28;20045;-71
2022/04/05 01:09:41;;;;;;;11.05;5.55;;;;;;;2.75;100.00;95518.59;4999590;28;20033;-71
2022/04/05 01:12:09;;;;;;;9.07;4.57;;;;;;;2.82;100.00;95509.78;5000088;28;20552;-71
2022/04/05 01:14:35;;;;;;;9.25;5.43;;;;;;;2.81;100.00;95522.19;5001302;28;20044;-69
2022/04/05 01:17:01;;;;;;;7.97;5.05;;;;;;;2.83;100.00;95514.03;4999331;28;20608;-70
2022/04/05 01:19:27;;;;;;;4.07;2.33;;;;;;;2.85;100.00;95523.34;5002115;28;20112;-69
2022/04/05 01:21:52;;;;;;;7.57;4.25;;;;;;;2.89;100.00;95513.16;5003390;28;20049;-71
2022/04/05 01:24:18;;;;;;;6.18;2.72;;;;;;;2.88;100.00;95517.63;4998850;28;20069;-69
2022/04/05 01:27:04;;;;;;;7.15;4.20;;;;;;;2.84;100.00;95508.53;5001936;28;20104;-70
2022/04/05 01:29:32;;;;;;;4.05;2.13;;;;;;;2.83;100.00;95514.03;4998662;28;20053;-70
2022/04/05 01:32:07;;;;;;;4.60;2.65;;;;;;;2.87;100.00;95505.44;4998466;28;20104;-71
2022/04/05 01:34:37;;;;;;;8.88;5.07;;;;;;;2.86;100.00;95503.81;5002662;28;20038;-71
2022/04/05 01:37:05;;;;;;;4.18;2.15;;;;;;;2.88;100.00;95501.78;5000013;28;20663;-69
2022/04/05 01:39:35;;;;;;;7.07;4.05;;;;;;;2.92;100.00;95497.66;5000305;28;20048;-69
2022/04/05 01:42:04;;;;;;;4.82;2.78;;;;;;;2.96;100.00;95498.03;5000943;28;20063;-72
2022/04/05 01:44:31;;;;;;;3.28;1.73;;;;;;;3.01;100.00;95498.13;5000491;28;20038;-70
2022/04/05 01:46:57;;;;;;;5.28;2.45;;;;;;;3.04;100.00;95501.16;5000715;28;20045;-69
2022/04/05 01:49:23;;;;;;;5.95;3.42;;;;;;;3.11;100.00;95497.59;5000564;28;20050;-69
2022/04/05 01:51:49;;;;;;;4.40;2.65;;;;;;;3.14;100.00;95491.88;5002141;28;20099;-69
2022/04/05 01:54:17;;;;;;;5.78;2.15;;;;;;;3.15;100.00;95496.94;4999433;28;20232;-70
2022/04/05 01:56:48;;;;;;;6.85;3.75;;;;;;;3.18;100.00;95495.66;5002432;28;20132;-73
2022/04/05 01:59:16;;;;;;;2.88;1.85;;;;;;;3.14;100.00;95502.44;4995489;28;20555;-70
2022/04/05 02:01:42;;;;;;;2.95;1.75;;;;;;;3.16;100.00;95490.59;4994571;28;20484;-69
2022/04/05 02:04:09;;;;;;;5.63;3.22;;;;;;;3.21;100.00;95497.88;4999641;28;20374;-70
2022/04/05 02:06:38;;;;;;;5.00;2.95;;;;;;;3.24;100.00;95497.41;4986165;28;20044;-69
2022/04/05 02:09:04;;;;;;;6.75;3.60;;;;;;;3.25;100.00;95493.72;4999006;28;20121;-69
2022/04/05 02:11:29;;;;;;;6.00;3.33;;;;;;;3.28;100.00;95501.25;4986819;28;20444;-69
2022/04/05 02:14:00;;;;;;;3.05;1.85;;;;;;;3.26;100.00;95501.44;4999076;28;20041;-70
2022/04/05 02:16:27;;;;;;;5.68;3.17;;;;;;;3.28;100.00;95488.81;4986264;28;20042;-70
2022/04/05 02:18:53;;;;;;;3.60;2.22;;;;;;;3.29;100.00;95493.06;4984812;28;20048;-70
2022/04/05 02:21:21;;;;;;;3.75;2.13;;;;;;;3.23;100.00;95486.03;4971486;28;20100;-70
2022/04/05 02:23:49;;;;;;;5.03;2.70;;;;;;;3.35;100.00;95492.19;4972801;28;20128;-69
2022/04/05 02:26:19;;;;;;;2.35;1.33;;;;;;;3.36;100.00;95503.56;4982254;28;20041;-70
2022/04/05 02:28:50;;;;;;;5.15;2.85;;;;;;;3.39;100.00;95502.28;4992367;28;20476;-69
2022/04/05 02:31:19;;;;;;;3.78;2.13;;;;;;;3.40;100.00;95498.59;4997672;28;20054;-70
2022/04/05 02:33:45;;;;;;;3.33;1.95;;;;;;;3.43;100.00;95512.19;5000778;28;20061;-70
2022/04/05 02:36:19;;;;;;;3.13;1.80;;;;;;;3.41;100.00;95501.03;4999230;28;20097;-71
2022/04/05 02:38:45;;;;;;;3.35;2.03;;;;;;;3.42;100.00;95494.69;4998949;28;20044;-69
2022/04/05 02:41:12;;;;;;;4.13;2.45;;;;;;;3.46;100.00;95514.38;5000878;28;20448;-69
2022/04/05 02:43:39;;;;;;;3.50;1.73;;;;;;;3.46;100.00;95503.81;5001204;28;20037;-69
2022/04/05 02:46:08;;;;;;;3.97;2.22;;;;;;;3.51;100.00;95497.84;4999203;28;20037;-70
2022/04/05 02:48:35;;;;;;;3.97;2.38;;;;;;;3.52;100.00;95497.59;5001258;28;20088;-70
2022/04/05 02:51:04;;;;;;;3.97;1.70;;;;;;;3.54;100.00;95500.81;4998748;28;20033;-71
2022/04/05 02:53:30;;;;;;;3.00;1.92;;;;;;;3.52;100.00;95492.31;5005108;28;20037;-69
2022/04/05 02:55:56;;;;;;;3.75;2.30;;;;;;;3.56;100.00;95484.72;5003557;28;20494;-69
2022/04/05 02:58:23;;;;;;;4.28;2.50;;;;;;;3.58;100.00;95490.59;4987915;28;20042;-71
2022/04/05 03:00:49;;;;;;;2.25;1.13;;;;;;;3.59;100.00;95482.44;4999259;28;20045;-70
2022/04/05 03:03:15;;;;;;;1.92;1.00;;;;;;;3.63;100.00;95488.88;5001228;28;20042;-71
2022/04/05 03:05:47;;;;;;;2.40;1.23;;;;;;;3.66;100.00;95492.94;5001456;28;20057;-71
2022/04/05 03:08:14;;;;;;;2.85;1.60;;;;;;;3.66;100.00;95489.44;5000679;28;20127;-70
2022/04/05 03:10:41;;;;;;;3.35;1.88;;;;;;;3.62;100.00;95481.16;5001184;28;20056;-70
2022/04/05 03:13:07;;;;;;;3.05;1.80;;;;;;;3.72;100.00;95488.53;5019639;28;20037;-71
2022/04/05 03:15:33;;;;;;;2.88;1.73;;;;;;;3.69;100.00;95489.81;5000556;28;20736;-70
2022/04/05 03:18:02;;;;;;;2.50;1.42;;;;;;;3.75;100.00;95491.56;5002906;28;20041;-71
2022/04/05 03:20:31;;;;;;;2.90;1.60;;;;;;;3.79;100.00;95490.03;5003855;28;20084;-70
2022/04/05 03:22:59;;;;;;;2.35;1.00;;;;;;;3.75;100.00;95488.09;5001255;28;20039;-69
2022/04/05 03:25:24;;;;;;;2.75;1.42;;;;;;;3.75;100.00;95486.25;5000652;28;20120;-70
2022/04/05 03:27:52;;;;;;;2.50;1.25;;;;;;;3.79;100.00;95490.03;5003470;28;20041;-70
2022/04/05 03:30:22;;;;;;;1.05;0.60;;;;;;;3.82;100.00;95488.78;5000250;28;20034;-70
2022/04/05 03:32:48;;;;;;;2.25;1.23;;;;;;;3.82;100.00;95481.66;5003434;28;20044;-71
2022/04/05 03:35:15;;;;;;;2.13;1.20;;;;;;;3.83;100.00;95490.41;5002790;28;20171;-71
2022/04/05 03:37:41;;;;;;;2.47;1.00;;;;;;;3.85;100.00;95488.31;5002854;28;20033;-70
2022/04/05 03:40:08;;;;;;;2.63;1.58;;;;;;;3.87;100.00;95488.91;5001057;28;20044;-69
2022/04/05 03:42:35;;;;;;;1.90;1.02;;;;;;;3.84;100.00;95486.72;5001009;28;20088;-70
2022/04/05 03:45:02;;;;;;;1.58;0.85;;;;;;;3.87;100.00;95481.75;5000016;28;20052;-71
2022/04/05 03:47:28;;;;;;;2.35;1.10;;;;;;;3.87;100.00;95483.59;5002269;28;20084;-71
2022/04/05 03:49:54;;;;;;;2.10;1.10;;;;;;;3.89;100.00;95498.25;5016551;28;20050;-71
2022/04/05 03:52:20;;;;;;;2.38;1.38;;;;;;;3.92;100.00;95494.31;5000558;28;20033;-70
2022/04/05 03:54:47;;;;;;;2.00;0.93;;;;;;;3.90;100.00;95483.16;5000113;28;20149;-71
2022/04/05 03:57:16;;;;;;;2.40;1.15;;;;;;;3.89;100.00;95492.94;5006702;28;20037;-71
2022/04/05 03:59:42;;;;;;;1.98;0.90;;;;;;;3.91;100.00;95498.00;4996440;28;20030;-71
2022/04/05 04:02:08;;;;;;;1.77;0.88;;;;;;;3.92;100.00;95492.47;4998805;28;20176;-70
2022/04/05 04:04:35;;;;;;;2.08;0.90;;;;;;;3.88;100.00;95490.50;5002128;28;20113;-70
2022/04/05 04:07:02;;;;;;;1.73;0.90;;;;;;;3.83;100.00;95487.75;5016121;28;20125;-71
2022/04/05 04:09:28;;;;;;;1.45;0.75;;;;;;;3.90;100.00;95496.41;5015653;28;20860;-70
2022/04/05 04:11:54;;;;;;;2.08;1.02;;;;;;;3.92;100.00;95503.06;5003492;28;20049;-70
2022/04/05 04:14:20;;;;;;;2.05;0.90;;;;;;;3.92;100.00;95496.97;4998617;28;20084;-70
2022/04/05 04:16:48;;;;;;;1.95;1.00;;;;;;;3.96;100.00;95503.38;5000877;28;20041;-71
2022/04/05 04:19:14;;;;;;;1.42;0.70;;;;;;;3.95;100.00;95499.13;5002576;28;20136;-70
2022/04/05 04:21:39;;;;;;;2.10;0.90;;;;;;;3.99;100.00;95500.31;5001978;28;20651;-70
2022/04/05 04:24:06;;;;;;;2.08;0.80;;;;;;;3.99;100.00;95497.66;5000829;28;20038;-69
2022/04/05 04:26:31;;;;;;;1.45;0.68;;;;;;;3.95;100.00;95493.03;5000729;28;20038;-69
2022/04/05 04:29:02;;;;;;;1.67;0.75;;;;;;;4.01;100.00;95500.06;5001020;28;20046;-70
2022/04/05 04:31:28;;;;;;;2.15;1.05;;;;;;;4.05;100.00;95509.19;5002405;28;20061;-69
2022/04/05 04:33:53;;;;;;;2.33;0.95;;;;;;;4.01;100.00;95498.22;5002192;28;20046;-70
2022/04/05 04:36:19;;;;;;;1.65;0.82;;;;;;;4.01;100.00;95508.00;5001793;28;20428;-71
2022/04/05 04:38:45;;;;;;;1.10;0.55;;;;;;;4.00;100.00;95509.06;5001429;28;20424;-71
2022/04/05 04:41:11;;;;;;;1.50;0.70;;;;;;;3.98;100.00;95504.00;5001539;28;20049;-69
2022/04/05 04:43:37;;;;;;;3.80;1.73;;;;;;;4.04;100.00;95504.88;5000792;28;20103;-70
2022/04/05 04:46:02;;;;;;;3.05;1.17;;;;;;;4.06;100.00;95508.13;4999770;28;20444;-71
2022/04/05 04:48:28;;;;;;;0.77;0.50;;;;;;;4.05;100.00;95512.63;4999279;28;21013;-69
2022/04/05 04:50:53;;;;;;;1.52;0.88;;;;;;;4.06;100.00;95518.72;5004217;28;20438;-70
2022/04/05 04:53:19;;;;;;;1.33;0.63;;;;;;;4.09;100.00;95516.41;4999264;28;20041;-70
2022/04/05 04:55:44;;;;;;;2.38;1.00;;;;;;;4.09;100.00;95510.31;4999374;28;20046;-70
2022/04/05 04:58:10;;;;;;;2.20;0.90;;;;;;;4.12;100.00;95533.66;4998205;28;20453;-71
2022/04/05 05:00:35;;;;;;;2.22;1.20;;;;;;;4.10;100.00;95525.97;5002094;28;20631;-69
2022/04/05 05:03:01;;;;;;;1.83;0.88;;;;;;;4.06;100.00;95513.44;5002554;28;20113;-71
2022/04/05 05:05:27;;;;;;;1.02;0.60;;;;;;;4.04;100.00;95526.88;4998554;28;20044;-70
2022/04/05 05:07:53;;;;;;;1.95;1.05;;;;;;;4.05;100.00;95520.56;5001385;28;20564;-71
2022/04/05 05:10:21;;;;;;;2.13;1.08;;;;;;;4.10;100.00;95528.59;4999307;28;20069;-70
2022/04/05 05:12:47;;;;;;;2.17;1.13;;;;;;;4.11;100.00;95521.47;5000645;28;20393;-73
2022/04/05 05:15:16;;;;;;;1.75;0.90;;;;;;;4.12;100.00;95521.22;4999406;28;20034;-69
2022/04/05 05:17:42;;;;;;;2.15;1.25;;;;;;;4.13;100.00;95532.66;5000334;28;20038;-70
2022/04/05 05:20:09;;;;;;;2.90;1.30;;;;;;;4.14;100.00;95529.78;5000015;28;20100;-71
2022/04/05 05:22:35;;;;;;;2.47;1.30;;;;;;;4.16;100.00;95530.34;5001519;28;20046;-70
2022/04/05 05:25:01;;;;;;;2.28;1.17;;;;;;;4.15;100.00;95539.31;4999323;28;20064;-70
2022/04/05 05:27:28;;;;;;;2.45;1.10;;;;;;;4.17;100.00;95539.09;5001198;28;20045;-70
2022/04/05 05:29:53;;;;;;;2.67;1.40;;;;;;;4.16;100.00;95543.59;4998304;28;20034;-70
2022/04/05 05:32:19;;;;;;;2.72;1.40;;;;;;;4.19;100.00;95535.16;5001802;28;20088;-70
2022/04/05 05:34:44;;;;;;;5.10;1.58;;;;;;;4.22;100.00;95547.16;5000116;28;20029;-71
2022/04/05 05:37:10;;;;;;;1.92;0.98;;;;;;;4.21;100.00;95542.91;5000014;28;20037;-70
2022/04/05 05:39:39;;;;;;;2.75;1.42;;;;;;;4.25;100.00;95553.84;5001760;28;20041;-71
2022/04/05 05:42:06;;;;;;;2.90;1.48;;;;;;;4.23;100.00;95554.06;5001004;28;20037;-71
2022/04/05 05:44:32;;;;;;;4.45;1.35;;;;;;;4.22;100.00;95547.16;5000431;28;20045;-69
2022/04/05 05:46:57;;;;;;;2.10;1.00;;;;;;;4.28;100.00;95556.00;5000051;28;20046;-70
2022/04/05 05:49:23;;;;;;;2.80;1.60;;;;;;;4.36;100.00;95558.34;4998171;28;20464;-70
2022/04/05 05:51:48;;;;;;;3.60;1.70;;;;;;;4.37;100.00;95546.69;5001305;28;20041;-71
2022/04/05 05:54:14;;;;;;;2.78;1.48;;;;;;;4.34;100.00;95558.53;4999813;28;20042;-71
2022/04/05 05:56:40;;;;;;;2.50;1.33;;;;;;;4.36;100.00;95563.63;5001314;28;20417;-70
2022/04/05 05:59:07;;;;;;;2.45;1.38;;;;;;;4.35;100.00;95557.50;5000351;28;20034;-70
2022/04/05 06:01:33;;;;;;;2.08;1.02;;;;;;;4.37;100.00;95573.19;4999411;28;20050;-70
2022/04/05 06:03:58;;;;;;;2.45;0.98;;;;;;;4.33;100.00;95582.63;4999351;28;20041;-69
2022/04/05 06:06:24;;;;;;;3.13;1.67;;;;;;;4.34;100.00;95571.78;4998044;28;20097;-70
2022/04/05 06:08:49;;;;;;;2.50;1.50;;;;;;;4.33;100.00;95582.63;4996627;28;20156;-70
2022/04/05 06:11:16;;;;;;;3.35;1.80;;;;;;;4.40;100.00;95588.59;4998420;28;20090;-70
2022/04/05 06:13:41;;;;;;;4.00;1.63;;;;;;;4.35;100.00;95577.88;4999492;28;20083;-71
2022/04/05 06:16:08;;;;;;;2.67;1.48;;;;;;;4.40;100.00;95586.75;4997762;28;20036;-71
2022/04/05 06:18:34;;;;;;;3.00;1.40;;;;;;;4.45;100.00;95583.44;4997601;28;20073;-69
2022/04/05 06:21:00;;;;;;;2.10;1.25;;;;;;;4.39;100.00;95590.47;5000519;28;20548;-70
2022/04/05 06:23:26;;;;;;;4.80;1.40;;;;;;;4.41;100.00;95584.91;4998330;28;20038;-71
2022/04/05 06:25:51;;;;;;;1.55;0.85;;;;;;;4.41;100.00;95598.16;4999220;28;20536;-70
2022/04/05 06:28:18;;;;;;;1.95;1.00;;;;;;;4.35;100.00;95602.53;4995163;28;20523;-71
2022/04/05 06:30:44;;;;;;;3.90;1.23;;;;;;;4.38;100.00;95601.28;4995807;28;20043;-70
2022/04/05 06:33:15;;;;;;;5.03;2.88;;;;;;;4.46;100.00;95598.28;4987234;28;20033;-71
2022/04/05 06:35:44;;;;;;;3.03;1.35;;;;;;;4.51;100.00;95593.09;4999616;28;20069;-70
2022/04/05 06:38:10;;;;;;;1.38;0.70;;;;;;;4.50;100.00;95611.88;4994217;28;20030;-70
2022/04/05 06:40:37;;;;;;;5.03;2.22;;;;;;;4.52;100.00;95607.16;4998669;28;20065;-69
2022/04/05 06:43:03;;;;;;;5.85;1.10;;;;;;;4.58;100.00;95604.38;4993152;28;20049;-69
2022/04/05 06:45:29;;;;;;;5.40;1.55;;;;;;;4.60;100.00;95598.88;4997517;28;20046;-70
2022/04/05 06:47:55;;;;;;;2.97;1.50;;;;;;;4.68;100.00;95606.47;4984204;28;20563;-70
2022/04/05 06:50:24;;;;;;;2.47;1.30;;;;;;;4.52;100.00;95607.97;4998346;28;20739;-71
2022/04/05 06:52:51;;;;;;;2.63;1.55;;;;;;;4.61;100.00;95606.59;4998837;28;20040;-71
2022/04/05 06:55:17;;;;;;;3.45;1.63;;;;;;;4.51;100.00;95606.34;4998101;28;20121;-69
2022/04/05 06:57:42;;;;;;;8.95;1.80;;;;;;;4.59;100.00;95627.22;4999696;28;20045;-71
2022/04/05 07:00:11;;;;;;;2.13;1.13;;;;;;;4.52;100.00;95613.28;4998541;28;20497;-71
2022/04/05 07:02:37;;;;;;;3.97;1.73;;;;;;;4.56;100.00;95608.31;5001414;28;20042;-69
2022/04/05 07:05:03;;;;;;;4.53;1.90;;;;;;;4.66;100.00;95605.88;5000731;28;20595;-70
2022/04/05 07:07:28;;;;;;;4.07;1.65;;;;;;;4.72;100.00;95618.19;5001362;28;20061;-70
2022/04/05 07:09:54;;;;;;;3.63;1.88;;;;;;;4.70;100.00;95614.97;4998954;28;20073;-71
2022/04/05 07:12:20;;;;;;;3.70;2.05;;;;;;;4.61;100.00;95609.22;4998912;28;20734;-70
2022/04/05 07:14:46;;;;;;;4.47;1.48;;;;;;;4.72;100.00;95608.41;4999241;28;20123;-69
2022/04/05 07:17:11;;;;;;;4.65;2.00;;;;;;;4.81;100.00;95610.69;4996870;28;20550;-69
2022/04/05 07:19:37;;;;;;;2.95;1.50;;;;;;;4.91;100.00;95611.75;5001432;28;20038;-69
2022/04/05 07:22:03;;;;;;;2.30;1.15;;;;;;;4.90;100.00;95620.75;4998672;28;20144;-70
2022/04/05 07:24:29;;;;;;;3.03;1.50;;;;;;;4.96;100.00;95608.38;5001761;28;20389;-70
2022/04/05 07:26:55;;;;;;;1.83;0.90;;;;;;;4.93;100.00;95614.16;4999384;28;20052;-70
2022/04/05 07:29:20;;;;;;;4.78;2.22;;;;;;;4.85;100.00;95611.84;4996762;28;20795;-70
2022/04/05 07:31:46;;;;;;;3.08;1.20;;;;;;;4.79;100.00;95597.69;4998286;28;20397;-71
2022/04/05 07:34:12;;;;;;;5.20;2.25;;;;;;;4.87;100.00;95607.13;4998307;28;20038;-70
2022/04/05 07:36:37;;;;;;;4.80;2.78;;;;;;;4.95;100.00;95598.81;4998805;28;20037;-70
2022/04/05 07:39:03;;;;;;;8.50;3.35;;;;;;;5.02;100.00;95594.19;4996993;28;20052;-71
2022/04/05 07:41:29;;;;;;;1.77;0.90;;;;;;;5.15;100.00;95603.72;4974350;28;20053;-70
2022/04/05 07:43:54;;;;;;;4.30;2.25;;;;;;;5.19;100.00;95603.00;4999884;28;20038;-69
2022/04/05 07:46:20;;;;;;;3.95;1.48;;;;;;;5.18;100.00;95593.44;5001416;28;20421;-70
2022/04/05 07:48:47;;;;;;;2.72;1.08;;;;;;;5.17;100.00;95605.09;4999895;28;20061;-69
2022/04/05 07:51:13;;;;;;;1.83;0.98;;;;;;;5.17;100.00;95599.78;4985626;28;20663;-69
2022/04/05 07:53:39;;;;;;;2.58;1.30;;;;;;;5.12;100.00;95612.13;5001327;28;20045;-71
2022/04/05 07:56:04;;;;;;;3.92;1.48;;;;;;;5.06;100.00;95597.16;5000802;28;20045;-69
2022/04/05 07:58:30;;;;;;;3.00;1.55;;;;;;;5.03;100.00;95599.25;5001589;28;20080;-69
2022/04/05 08:00:56;;;;;;;2.35;1.15;;;;;;;5.20;100.00;95598.50;4986344;28;20046;-70
2022/04/05 08:03:22;;;;;;;2.42;1.30;;;;;;;5.42;100.00;95601.31;5002232;28;20582;-71
2022/04/05 08:05:48;;;;;;;4.78;2.22;;;;;;;5.18;100.00;95601.41;5001301;28;20449;-71
2022/04/05 08:08:14;;;;;;;2.40;1.08;;;;;;;5.26;100.00;95611.66;5001158;28;20056;-70
2022/04/05 08:10:39;;;;;;;2.08;1.02;;;;;;;5.35;100.00;95600.66;5001583;28;20059;-70
2022/04/05 08:13:05;;;;;;;4.88;2.03;;;;;;;5.28;100.00;95596.28;5000443;28;20314;-69
2022/04/05 08:15:31;;;;;;;6.93;3.00;;;;;;;5.21;100.00;95600.13;5000422;28;20485;-70
2022/04/05 08:17:57;;;;;;;4.05;1.75;;;;;;;5.28;100.00;95606.91;5002806;28;20129;-70
2022/04/05 08:20:24;;;;;;;6.65;2.65;;;;;;;5.29;100.00;95618.31;5001911;28;20037;-70
2022/04/05 08:22:49;;;;;;;3.13;1.40;;;;;;;5.24;100.00;95600.47;5002617;28;20739;-70
2022/04/05 08:25:16;;;;;;;3.35;1.30;;;;;;;5.01;100.00;95611.94;5000528;28;20032;-70
2022/04/05 08:27:43;;;;;;;1.73;1.00;;;;;;;5.18;100.00;95621.81;5000086;28;20097;-69
2022/04/05 08:30:10;;;;;;;3.63;1.83;;;;;;;5.11;100.00;95614.00;4998478;28;20481;-69
2022/04/05 08:32:38;;;;;;;2.80;1.40;;;;;;;5.07;100.00;95626.13;4998587;28;20767;-70
2022/04/05 08:35:04;;;;;;;5.25;1.70;;;;;;;5.19;100.00;95623.44;4997810;28;20125;-70
2022/04/05 08:37:30;;;;;;;4.82;2.08;;;;;;;5.41;100.00;95628.91;4999593;28;20049;-70
2022/04/05 08:39:56;;;;;;;1.92;1.00;;;;;;;5.52;100.00;95628.06;4974209;28;20097;-69
2022/04/05 08:42:23;;;;;;;1.88;1.10;;;;;;;5.61;100.00;95623.19;5001353;28;20450;-70
2022/04/05 08:44:49;;;;;;;3.70;1.90;;;;;;;5.59;100.00;95618.91;4999513;28;20041;-69
2022/04/05 08:47:21;;;;;;;5.10;1.48;;;;;;;5.75;100.00;95625.28;4997065;28;20045;-71
2022/04/05 08:49:49;;;;;;;2.47;1.27;;;;;;;5.87;100.00;95627.91;5000855;28;20052;-70
2022/04/05 08:52:14;;;;;;;2.15;1.08;;;;;;;5.87;100.00;95636.69;4997796;28;20034;-71
2022/04/05 08:54:40;;;;;;;2.63;1.35;;;;;;;5.89;100.00;95615.19;5001586;28;20096;-71
2022/04/05 08:57:06;;;;;;;0.98;0.63;;;;;;;5.91;100.00;95629.06;5001116;28;20708;-71
2022/04/05 08:59:32;;;;;;;4.50;2.20;;;;;;;5.92;100.00;95621.94;5003224;28;20136;-70
2022/04/05 09:01:58;;;;;;;3.40;1.67;;;;;;;6.11;100.00;95623.31;4999586;28;20149;-71
2022/04/05 09:04:24;;;;;;;2.90;1.30;;;;;;;6.11;100.00;95616.13;5000599;28;20049;-70
2022/04/05 09:06:49;;;;;;;2.20;1.00;;;;;;;6.12;100.00;95616.94;5000584;28;20072;-70
2022/04/05 09:09:17;;;;;;;3.40;1.33;;;;;;;6.09;100.00;95628.06;5000146;28;20390;-70
2022/04/05 09:11:52;;;;;;;2.75;1.40;;;;;;;6.23;100.00;95626.72;5002217;28;20497;-70
2022/04/05 09:14:27;;;;;;;2.50;1.23;;;;;;;6.31;100.00;95625.50;5000355;28;20986;-70
2022/04/05 09:17:08;;;;;;;2.38;1.13;;;;;;;6.31;100.00;95631.63;5003195;28;20053;-70
2022/04/05 09:19:48;;;;;;;2.88;1.48;;;;;;;6.43;100.00;95624.34;5002775;28;20143;-71
2022/04/05 09:22:15;;;;;;;2.40;1.23;;;;;;;6.29;100.00;95631.03;5000221;28;20037;-69
2022/04/05 09:24:43;;;;;;;2.50;1.05;;;;;;;6.20;100.00;95639.66;5000179;28;20961;-70
2022/04/05 09:27:09;;;;;;;3.15;1.40;;;;;;;5.92;100.00;95643.97;4999640;28;20404;-70
2022/04/05 09:29:42;;;;;;;3.05;1.23;;;;;;;5.82;100.00;95641.09;4996771;28;20058;-69
2022/04/05 09:32:09;;;;;;;2.95;1.58;;;;;;;5.91;100.00;95650.31;4999869;28;20673;-70
2022/04/05 09:34:51;;;;;;;3.60;1.90;;;;;;;5.84;100.00;95658.41;5001630;28;20041;-69
2022/04/05 09:37:28;;;;;;;0.98;0.60;;;;;;;5.85;100.00;95661.88;5000728;28;20040;-70
2022/04/05 09:39:57;;;;;;;3.45;2.00;;;;;;;5.80;100.00;95651.94;4976742;28;20564;-69
2022/04/05 09:42:22;;;;;;;4.07;2.00;;;;;;;5.85;100.00;95653.91;4997424;28;20366;-69
2022/04/05 09:44:48;;;;;;;4.40;2.33;;;;;;;5.85;100.00;95665.31;4998396;28;20073;-70
2022/04/05 09:47:22;;;;;;;3.38;1.80;;;;;;;5.83;100.00;95653.31;4997091;28;20049;-69
2022/04/05 09:49:49;;;;;;;4.50;2.55;;;;;;;5.87;100.00;95657.94;4998393;28;20432;-70
2022/04/05 09:52:23;;;;;;;3.75;1.95;;;;;;;5.82;100.00;95667.63;4998422;28;20041;-70
2022/04/05 09:54:48;;;;;;;3.95;2.38;;;;;;;5.83;100.00;95666.59;4999151;28;20125;-71
2022/04/05 09:57:14;;;;;;;4.28;2.38;;;;;;;5.88;100.00;95674.66;4997805;28;20037;-70
2022/04/05 09:59:42;;;;;;;5.32;2.53;;;;;;;5.78;100.00;95671.81;4999099;28;20056;-69
2022/04/05 10:02:13;;;;;;;10.60;2.50;;;;;;;5.84;100.00;95669.03;4998655;28;20064;-71
2022/04/05 10:05:01;;;;;;;9.13;2.83;;;;;;;5.91;100.00;95674.19;4999597;28;20073;-70
2022/04/05 10:07:29;;;;;;;4.32;2.45;;;;;;;5.92;100.00;95673.19;4998695;28;20035;-70
2022/04/05 10:09:57;;;;;;;3.85;2.25;;;;;;;6.00;100.00;95675.47;4998523;28;20042;-69
2022/04/05 10:12:23;;;;;;;4.90;3.17;;;;;;;6.02;100.00;95676.00;4981203;28;20042;-70
2022/04/05 10:14:48;;;;;;;4.43;1.98;;;;;;;6.06;100.00;95692.28;5000075;28;20508;-70
2022/04/05 10:17:15;;;;;;;3.47;1.58;;;;;;;6.00;100.00;95677.31;5000673;28;20117;-70
2022/04/05 10:19:44;;;;;;;3.85;2.38;;;;;;;6.07;100.00;95677.94;4999233;28;20038;-70
2022/04/05 10:22:11;;;;;;;2.50;1.35;;;;;;;6.16;100.00;95686.34;5001019;28;20493;-71
2022/04/05 10:24:38;;;;;;;4.14;2.40;;;;;;;6.33;100.00;95684.53;4649294;28;10001449;-70
2022/04/05 10:27:06;;;;;;;4.07;2.40;;;;;;;6.42;100.00;95680.41;4650034;28;10000674;-70
2022/04/05 10:29:32;;;;;;;14.15;2.70;;;;;;;6.45;100.00;95671.94;4996087;28;20050;-70
2022/04/05 10:32:25;;;;;;;5.22;2.80;;;;;;;6.45;100.00;95679.13;4996472;28;20073;-70
2022/04/05 10:35:02;;;;;;;10.95;3.03;;;;;;;6.35;100.00;95677.91;4997970;28;20041;-70
2022/04/05 10:37:40;;;;;;;13.20;2.88;;;;;;;6.30;100.00;95682.31;4996181;28;20049;-69
2022/04/05 10:40:08;;;;;;;5.85;3.45;;;;;;;6.30;100.00;95675.19;4992362;28;20499;-70
2022/04/05 10:42:46;;;;;;;4.60;2.80;;;;;;;6.32;100.00;95673.09;4996307;28;20045;-70
2022/04/05 10:45:20;;;;;;;5.60;2.72;;;;;;;6.38;100.00;95674.78;4994785;28;20161;-69
2022/04/05 10:48:10;;;;;;;3.65;1.92;;;;;;;6.48;100.00;95668.03;4967815;28;20760;-69
2022/04/05 10:50:35;;;;;;;4.95;1.98;;;;;;;6.63;100.00;95671.72;4997386;28;20046;-70
2022/04/05 10:53:14;;;;;;;2.50;1.40;;;;;;;6.79;100.00;95675.41;4996551;28;20030;-70
2022/04/05 10:56:07;;;;;;;2.25;0.95;;;;;;;6.95;100.00;95668.47;4996125;28;20049;-70
2022/04/05 10:58:33;;;;;;;2.03;0.85;;;;;;;6.98;100.00;95667.97;4996687;28;20038;-70
2022/04/05 11:01:18;;;;;;;1.92;0.90;;;;;;;7.29;100.00;95663.88;4998006;28;20049;-71
2022/04/05 11:04:21;;;;;;;1.75;0.73;;;;;;;7.32;100.00;95663.38;4997645;28;20482;-71
2022/04/05 11:06:59;;;;;;;1.10;0.43;;;;;;;7.24;100.00;95671.81;4996926;28;20041;-70
2022/04/05 11:09:33;;;;;;;4.70;0.90;;;;;;;7.37;100.00;95658.13;4992452;28;20048;-69
2022/04/05 11:12:02;;;;;;;2.67;1.10;;;;;;;7.42;100.00;95650.19;4997066;28;20147;-69
2022/04/05 11:14:51;;;;;;;2.47;1.05;;;;;;;7.56;100.00;95655.97;4980236;28;20099;-70
2022/04/05 11:17:19;;;;;;;3.03;1.35;;;;;;;7.45;100.00;95654.22;5003419;28;20709;-71
2022/04/05 11:19:50;;;;;;;5.15;2.00;;;;;;;7.40;100.00;95660.28;5002915;28;20137;-71
2022/04/05 11:22:21;;;;;;;4.57;1.70;;;;;;;7.35;100.00;95668.22;4999763;28;20470;-70
2022/04/05 11:24:50;;;;;;;;;;;;;;;7.52;100.00;95663.63;5005052;28;20526;-70
2022/04/05 11:27:45;;;;;;;2.00;1.05;;;;;;;7.51;100.00;95650.56;4999175;28;19921;-70
2022/04/05 11:30:26;;;;;;;3.75;1.52;;;;;;;7.63;100.00;95659.25;4991421;28;20041;-71
2022/04/05 11:33:13;;;;;;;;;;;;;;;7.55;100.00;95657.03;5001393;28;20042;-70
2022/04/05 11:35:39;;;;;;;2.22;0.95;;;;;;;7.45;100.00;95657.69;4998773;28;19921;-70
2022/04/05 11:38:11;;;;;;;4.03;1.33;;;;;;;7.50;100.00;95652.44;4994218;28;20045;-71